Solnecnogorsk, Russia
Current Conditions -  °F | °C
As of 4:30 AM on Friday 19 Dec 2014 (Local Time) from UUEE Reporting Station
Overcast Overcast  
Wind Chill: 26°   Ceiling: 1400
Heat Index: 32°   Visibility: 6mi
Dew Point: 30°   Wind: 7mph
Humidity: 93%   Direction: 200°SSW
Pressure: 29.77"   Gusts: NA
Location:  56.18°N, 36.96°E
Report Text: UUEE 190130Z 20003MPS 9999 OVC014 M00/M01 Q1008 7555023625550236 NOSIG
Loading
Personal Weather Stations






























Interactive Weather Map New forecast layout! Learn more

10-Day Weather Forecast

Advertisements
Track Severe Weather on mobile